createdAt,value
2022-11-10T00:01:16.905Z,21.88
2022-11-10T00:04:05.954Z,20.42
2022-11-10T00:06:47.879Z,19.58
2022-11-10T00:09:41.849Z,21.08
2022-11-10T00:12:35.855Z,22.63
2022-11-10T00:15:47.859Z,22.50
2022-11-10T00:18:34.869Z,21.17
2022-11-10T00:21:20.860Z,21.65
2022-11-10T00:24:07.867Z,21.83
2022-11-10T00:26:40.942Z,22.42
2022-11-10T00:29:28.869Z,21.65
2022-11-10T00:32:01.924Z,20.90
2022-11-10T00:34:48.840Z,19.95
2022-11-10T00:37:21.959Z,21.77
2022-11-10T00:40:08.877Z,21.38
2022-11-10T00:42:48.858Z,20.00
2022-11-10T00:45:35.870Z,20.85
2022-11-10T00:48:15.862Z,20.25
2022-11-10T00:51:09.878Z,20.10
2022-11-10T00:53:56.861Z,19.63
2022-11-10T00:56:30.991Z,20.77
2022-11-10T00:59:17.889Z,20.75
2022-11-10T01:01:50.999Z,20.95
2022-11-10T01:04:37.869Z,21.13
2022-11-10T01:07:17.876Z,21.33
2022-11-10T01:10:11.884Z,20.13
2022-11-10T01:12:58.867Z,20.30
2022-11-10T01:15:31.947Z,20.85
2022-11-10T01:18:18.884Z,21.15
2022-11-10T01:20:56.942Z,20.85
2022-11-10T01:23:43.892Z,19.58
2022-11-10T01:26:16.970Z,19.90
2022-11-10T01:29:03.890Z,19.60
2022-11-10T01:31:37.957Z,19.20
2022-11-10T01:34:24.897Z,18.77
2022-11-10T01:36:57.953Z,20.98
2022-11-10T01:39:44.877Z,19.95
2022-11-10T01:42:17.987Z,19.13
2022-11-10T01:45:29.880Z,19.73
2022-11-10T01:48:14.899Z,19.90
2022-11-10T01:51:03.880Z,19.13
2022-11-10T01:53:41.952Z,19.33
2022-11-10T01:56:29.884Z,19.00
2022-11-10T01:59:13.895Z,18.55
2022-11-10T02:02:11.883Z,18.38
2022-11-10T02:05:05.890Z,19.65
2022-11-10T02:07:52.932Z,19.15
2022-11-10T02:10:27.961Z,20.85
2022-11-10T02:13:14.910Z,21.70
2022-11-10T02:16:08.902Z,22.15
2022-11-10T02:18:55.894Z,21.48
2022-11-10T02:21:28.962Z,22.90
2022-11-10T02:24:15.892Z,21.77
2022-11-10T02:27:01.898Z,20.73
2022-11-10T02:29:48.905Z,21.90
2022-11-10T02:32:21.964Z,22.50
2022-11-10T02:35:08.923Z,21.98
2022-11-10T02:37:48.913Z,22.08
2022-11-10T02:40:42.928Z,21.65
2022-11-10T02:43:29.919Z,20.00
2022-11-10T02:46:03.152Z,22.13
2022-11-10T02:48:49.923Z,21.05
2022-11-10T02:51:22.996Z,20.63
2022-11-10T02:54:09.970Z,20.35
2022-11-10T02:56:43.009Z,20.38
2022-11-10T02:59:29.944Z,20.40
2022-11-10T03:02:02.997Z,20.15
2022-11-10T03:04:49.901Z,20.08
2022-11-10T03:07:22.983Z,18.23
2022-11-10T03:10:09.908Z,18.55
2022-11-10T03:12:43.038Z,19.42
2022-11-10T03:15:29.930Z,18.90
2022-11-10T03:18:18.913Z,19.40
2022-11-10T03:21:12.929Z,19.42
2022-11-10T03:23:59.908Z,19.80
2022-11-10T03:26:32.991Z,18.52
2022-11-10T03:29:19.922Z,19.42
2022-11-10T03:31:59.936Z,20.13
2022-11-10T03:34:53.935Z,19.17
2022-11-10T03:37:47.927Z,19.10
2022-11-10T03:41:12.082Z,19.42
2022-11-10T03:43:41.915Z,19.15
2022-11-10T03:46:22.962Z,18.17
2022-11-10T03:48:56.008Z,18.90
2022-11-10T03:51:42.954Z,19.00
2022-11-10T03:54:16.084Z,19.98
2022-11-10T03:57:02.924Z,18.08
2022-11-10T03:59:36.468Z,18.52
2022-11-10T04:02:22.941Z,19.20
2022-11-10T04:05:20.960Z,19.70
2022-11-10T04:08:32.938Z,20.08
2022-11-10T04:11:19.959Z,18.48
2022-11-10T04:14:11.880Z,20.73
2022-11-10T04:16:58.959Z,20.92
2022-11-10T04:19:33.028Z,20.80
2022-11-10T04:22:39.962Z,21.33
2022-11-10T04:25:13.043Z,21.33
2022-11-10T04:27:59.945Z,22.23
2022-11-10T04:30:33.022Z,21.50
2022-11-10T04:33:20.211Z,21.05
2022-11-10T04:35:59.944Z,19.80
2022-11-10T04:38:53.955Z,19.63
2022-11-10T04:41:41.949Z,20.70
2022-11-10T04:44:15.032Z,21.27
2022-11-10T04:47:01.958Z,20.73
2022-11-10T04:49:35.067Z,23.27
2022-11-10T04:52:21.956Z,21.45
2022-11-10T04:55:01.974Z,22.05
2022-11-10T04:57:49.960Z,21.27
2022-11-10T05:00:24.037Z,22.17
2022-11-10T05:03:13.975Z,23.35
2022-11-10T05:05:55.985Z,21.75
2022-11-10T05:08:50.962Z,23.92
2022-11-10T05:11:37.963Z,21.67
2022-11-10T05:14:11.047Z,22.27
2022-11-10T05:16:57.971Z,22.38
2022-11-10T05:19:31.037Z,20.95
2022-11-10T05:22:17.988Z,20.15
2022-11-10T05:24:51.139Z,20.17
2022-11-10T05:27:37.968Z,20.45
2022-11-10T05:30:18.995Z,21.58
2022-11-10T05:33:05.978Z,23.02
2022-11-10T05:35:46.998Z,24.83
2022-11-10T05:38:35.651Z,22.30
2022-11-10T05:41:18.970Z,23.58
2022-11-10T05:44:12.990Z,25.20
2022-11-10T05:47:00.010Z,27.73
2022-11-10T05:49:33.014Z,27.17
2022-11-10T05:52:19.986Z,24.80
2022-11-10T05:54:55.434Z,24.08
2022-11-10T05:57:41.983Z,23.35
2022-11-10T06:00:24.313Z,23.67
2022-11-10T06:03:18.072Z,24.45
2022-11-10T06:05:52.174Z,22.33
2022-11-10T06:08:38.997Z,21.33
2022-11-10T06:11:12.776Z,22.75
2022-11-10T06:14:06.991Z,20.00
2022-11-10T06:17:01.001Z,21.98
2022-11-10T06:19:47.984Z,21.73
2022-11-10T06:22:27.073Z,20.58
2022-11-10T06:25:14.996Z,20.92
2022-11-10T06:27:58.019Z,21.17
2022-11-10T06:30:45.009Z,20.88
2022-11-10T06:33:25.223Z,21.35
2022-11-10T06:36:12.019Z,21.15
2022-11-10T06:38:52.004Z,20.20
2022-11-10T06:41:40.008Z,23.85
2022-11-10T06:44:13.175Z,19.90
2022-11-10T06:47:03.019Z,19.92
2022-11-10T06:49:36.089Z,22.20
2022-11-10T06:52:23.003Z,20.13
2022-11-10T06:54:56.171Z,20.27
2022-11-10T06:57:47.020Z,18.77
2022-11-10T07:00:28.019Z,18.40
2022-11-10T07:03:26.013Z,18.92
2022-11-10T07:06:13.031Z,17.90
2022-11-10T07:08:53.030Z,19.65
2022-11-10T07:11:46.998Z,19.65
2022-11-10T07:14:41.035Z,21.20
2022-11-10T07:17:35.010Z,20.50
2022-11-10T07:20:22.035Z,21.25
2022-11-10T07:23:03.040Z,21.00
2022-11-10T07:25:50.046Z,23.95
2022-11-10T07:28:27.297Z,25.90
2022-11-10T07:31:15.022Z,26.42
2022-11-10T07:33:55.052Z,26.05
2022-11-10T07:36:42.019Z,24.55
2022-11-10T07:39:22.047Z,24.27
2022-11-10T07:42:16.025Z,24.02
2022-11-10T07:45:03.016Z,24.38
2022-11-10T07:47:36.134Z,25.98
2022-11-10T07:50:24.030Z,24.73
2022-11-10T07:53:04.054Z,26.38
2022-11-10T07:55:58.031Z,25.08
2022-11-10T07:58:45.063Z,22.77
2022-11-10T08:01:25.076Z,21.00
2022-11-10T08:04:12.022Z,19.95
2022-11-10T08:06:52.112Z,21.58
2022-11-10T08:09:46.052Z,20.40
2022-11-10T08:12:40.047Z,21.65
2022-11-10T08:15:34.046Z,20.50
2022-11-10T08:18:35.276Z,20.90
2022-11-10T08:21:25.047Z,21.92
2022-11-10T08:24:05.033Z,20.00
2022-11-10T08:26:52.049Z,20.75
2022-11-10T08:29:25.115Z,20.60
2022-11-10T08:32:14.062Z,21.15
2022-11-10T08:34:47.145Z,20.27
2022-11-10T08:37:37.061Z,20.88
2022-11-10T08:40:10.182Z,18.60
2022-11-10T08:43:08.052Z,19.65
2022-11-10T08:45:53.070Z,19.55
2022-11-10T08:48:47.046Z,18.80
2022-11-10T08:51:41.082Z,19.80
2022-11-10T08:54:28.053Z,20.33
2022-11-10T08:57:11.070Z,19.63
2022-11-10T09:00:05.061Z,20.05
2022-11-10T09:02:52.071Z,20.10
2022-11-10T09:05:25.209Z,20.25
2022-11-10T09:08:13.080Z,20.13
2022-11-10T09:10:58.087Z,21.25
2022-11-10T09:13:45.111Z,18.58
2022-11-10T09:16:25.053Z,19.63
2022-11-10T09:19:20.177Z,18.80
2022-11-10T09:22:07.071Z,17.27
2022-11-10T09:24:42.106Z,18.58
2022-11-10T09:27:29.064Z,16.70
2022-11-10T09:30:02.205Z,17.85
2022-11-10T09:32:53.103Z,19.17
2022-11-10T09:35:26.178Z,19.15
2022-11-10T09:38:13.087Z,19.55
2022-11-10T09:41:16.072Z,19.48
2022-11-10T09:44:04.094Z,18.40
2022-11-10T09:46:43.224Z,19.55
2022-11-10T09:50:00.096Z,19.40
2022-11-10T09:52:39.202Z,19.55
2022-11-10T09:55:54.100Z,19.25
2022-11-10T09:58:40.098Z,18.20
2022-11-10T10:01:42.132Z,19.65
2022-11-10T10:04:50.565Z,18.02
2022-11-10T10:07:55.202Z,19.23
2022-11-10T10:10:51.249Z,17.45
2022-11-10T10:13:51.085Z,18.73
2022-11-10T10:16:38.197Z,19.27
2022-11-10T10:19:40.088Z,18.08
2022-11-10T10:22:33.405Z,18.58
2022-11-10T10:25:27.098Z,19.30
2022-11-10T10:28:27.494Z,18.02
2022-11-10T10:31:24.113Z,18.80
2022-11-10T10:34:05.091Z,18.20
2022-11-10T10:36:53.115Z,18.80
2022-11-10T10:39:48.112Z,19.42
2022-11-10T10:42:47.126Z,18.45
2022-11-10T10:45:36.149Z,18.80
2022-11-10T10:48:16.185Z,20.50
2022-11-10T10:51:10.114Z,20.13
2022-11-10T10:53:57.108Z,21.27
2022-11-10T10:56:37.207Z,21.08
2022-11-10T10:59:29.105Z,21.45
2022-11-10T11:02:02.284Z,21.63
2022-11-10T11:04:49.116Z,23.48
2022-11-10T11:07:32.523Z,22.17
2022-11-10T11:10:35.141Z,25.63
2022-11-10T11:13:30.226Z,22.15
2022-11-10T11:16:24.174Z,21.88
2022-11-10T11:19:11.112Z,22.05
2022-11-10T11:22:09.147Z,21.70
2022-11-10T11:25:34.121Z,21.05
2022-11-10T11:28:36.213Z,21.77
2022-11-10T11:31:28.184Z,20.35
2022-11-10T11:34:24.203Z,21.98
2022-11-10T11:37:28.125Z,21.40
2022-11-10T11:40:07.270Z,21.58
2022-11-10T11:42:57.154Z,21.02
2022-11-10T11:45:50.181Z,22.85
2022-11-10T11:48:53.139Z,22.67
2022-11-10T11:51:49.247Z,21.02
2022-11-10T11:54:46.186Z,23.00
2022-11-10T11:57:55.304Z,21.92
2022-11-10T12:00:35.180Z,21.67
2022-11-10T12:03:59.142Z,20.33
2022-11-10T12:07:22.186Z,21.55
2022-11-10T12:10:39.322Z,22.50
2022-11-10T12:13:29.214Z,22.23
2022-11-10T12:16:29.321Z,16.88
2022-11-10T12:19:31.216Z,22.38
2022-11-10T12:22:39.337Z,22.50
2022-11-10T12:25:52.185Z,20.60
2022-11-10T12:28:32.280Z,19.13
2022-11-10T12:31:30.184Z,19.88
2022-11-10T12:34:15.187Z,21.52
2022-11-10T12:37:04.186Z,19.70
2022-11-10T12:40:00.186Z,21.20
2022-11-10T12:42:50.188Z,22.23
2022-11-10T12:45:42.183Z,21.08
2022-11-10T12:48:30.183Z,21.92
2022-11-10T12:51:11.256Z,24.98
2022-11-10T12:53:58.185Z,21.27
2022-11-10T12:56:56.606Z,21.55
2022-11-10T12:59:46.185Z,22.80
2022-11-10T13:02:45.301Z,24.05
2022-11-10T13:05:43.210Z,26.73
2022-11-10T13:08:27.438Z,25.90
2022-11-10T13:11:20.214Z,26.52
2022-11-10T13:14:05.435Z,23.80
2022-11-10T13:17:03.220Z,26.63
2022-11-10T13:20:27.908Z,21.83
2022-11-10T13:23:30.187Z,24.52
2022-11-10T13:26:15.354Z,26.10
2022-11-10T13:29:11.233Z,24.05
2022-11-10T13:32:00.289Z,26.48
2022-11-10T13:34:39.324Z,25.05
2022-11-10T13:37:57.226Z,25.63
2022-11-10T13:40:31.085Z,25.58
2022-11-10T13:43:21.438Z,26.58
2022-11-10T13:46:01.219Z,26.02
2022-11-10T13:49:05.225Z,23.95
2022-11-10T13:52:23.221Z,27.75
2022-11-10T13:55:58.192Z,25.98
2022-11-10T13:58:50.210Z,25.85
2022-11-10T14:01:23.336Z,26.35
2022-11-10T14:04:11.269Z,24.85
2022-11-10T14:06:52.702Z,24.90
2022-11-10T14:09:47.259Z,24.58
2022-11-10T14:12:51.225Z,24.08
2022-11-10T14:15:58.408Z,24.08
2022-11-10T14:19:01.224Z,25.63
2022-11-10T14:22:03.228Z,24.58
2022-11-10T14:25:27.203Z,25.48
2022-11-10T14:28:40.201Z,25.23
2022-11-10T14:31:32.219Z,23.80
2022-11-10T14:34:06.341Z,24.13
2022-11-10T14:37:03.280Z,22.40
2022-11-10T14:39:50.187Z,29.27
2022-11-10T14:42:33.277Z,28.48
2022-11-10T14:45:31.268Z,31.23
2022-11-10T14:48:06.331Z,27.15
2022-11-10T14:50:53.289Z,26.35
2022-11-10T14:53:44.206Z,28.40
2022-11-10T14:56:38.275Z,28.83
2022-11-10T14:59:14.327Z,29.30
2022-11-10T15:02:09.333Z,31.10
2022-11-10T15:04:46.014Z,33.03
2022-11-10T15:07:33.267Z,28.95
2022-11-10T15:10:26.288Z,29.42
2022-11-10T15:13:32.289Z,30.40
2022-11-10T15:16:37.353Z,32.88
2022-11-10T15:19:31.262Z,27.75
2022-11-10T15:22:43.264Z,33.92
2022-11-10T15:25:32.293Z,27.58
2022-11-10T15:28:09.382Z,17.02
2022-11-10T15:31:05.357Z,16.42
2022-11-10T15:33:42.326Z,17.10
2022-11-10T15:36:29.307Z,17.40
2022-11-10T15:39:23.372Z,17.77
2022-11-10T15:42:20.281Z,18.08
2022-11-10T15:44:53.341Z,20.05
2022-11-10T15:47:40.288Z,19.95
2022-11-10T15:50:18.330Z,20.05
2022-11-10T15:53:05.270Z,21.40
2022-11-10T15:55:45.264Z,23.67
2022-11-10T15:58:34.288Z,19.52
2022-11-10T16:01:08.418Z,19.65
2022-11-10T16:03:55.273Z,19.08
2022-11-10T16:06:37.346Z,18.88
2022-11-10T16:09:31.270Z,20.15
2022-11-10T16:12:27.268Z,19.80
2022-11-10T16:15:02.647Z,18.92
2022-11-10T16:17:49.269Z,19.77
2022-11-10T16:20:22.403Z,21.08
2022-11-10T16:23:09.309Z,19.75
2022-11-10T16:25:43.353Z,19.38
2022-11-10T16:28:33.314Z,20.58
2022-11-10T16:31:13.266Z,23.30
2022-11-10T16:34:00.290Z,23.30
2022-11-10T16:36:38.987Z,23.42
2022-11-10T16:39:26.284Z,22.25
2022-11-10T16:42:06.286Z,21.25
2022-11-10T16:45:06.287Z,19.95
2022-11-10T16:47:56.290Z,24.48
2022-11-10T16:50:37.808Z,22.27
2022-11-10T16:53:32.334Z,21.27
2022-11-10T16:56:05.384Z,22.45
2022-11-10T16:58:53.327Z,37.05
2022-11-10T17:01:38.385Z,27.73
2022-11-10T17:04:32.509Z,31.38
2022-11-10T17:07:22.338Z,28.50
2022-11-10T17:09:56.381Z,28.73
2022-11-10T17:12:43.330Z,29.63
2022-11-10T17:15:24.656Z,22.98
2022-11-10T17:18:12.329Z,22.50
2022-11-10T17:20:47.428Z,23.38
2022-11-10T17:23:36.410Z,21.95
2022-11-10T17:26:16.330Z,23.83
2022-11-10T17:29:04.333Z,22.90
2022-11-10T17:31:44.327Z,26.05
2022-11-10T17:34:32.343Z,21.25
2022-11-10T17:37:06.375Z,29.13
2022-11-10T17:39:53.330Z,32.10
2022-11-10T17:42:26.379Z,36.03
2022-11-10T17:45:23.339Z,32.15
2022-11-10T17:47:57.490Z,36.75
2022-11-10T17:50:47.325Z,30.95
2022-11-10T17:53:32.376Z,30.48
2022-11-10T17:56:19.342Z,33.80
2022-11-10T17:58:53.541Z,34.03
2022-11-10T18:01:40.358Z,33.35
2022-11-10T18:04:14.476Z,35.42
2022-11-10T18:07:04.708Z,33.90
2022-11-10T18:09:38.388Z,69.78
2022-11-10T18:12:27.934Z,80.50
2022-11-10T18:15:08.333Z,53.53
2022-11-10T18:18:02.394Z,46.95
2022-11-10T18:20:57.335Z,37.58
2022-11-10T18:23:44.340Z,33.30
2022-11-10T18:26:17.877Z,32.22
2022-11-10T18:29:04.341Z,53.03
2022-11-10T18:31:44.337Z,68.00
2022-11-10T18:34:31.332Z,83.03
2022-11-10T18:37:04.406Z,44.45
2022-11-10T18:39:51.316Z,44.00
2022-11-10T18:42:31.352Z,37.95
2022-11-10T18:45:19.331Z,31.88
2022-11-10T18:47:52.400Z,32.05
2022-11-10T18:50:39.347Z,31.15
2022-11-10T18:53:12.399Z,30.75
2022-11-10T18:56:02.331Z,36.47
2022-11-10T18:58:35.418Z,33.17
2022-11-10T19:01:22.384Z,31.17
2022-11-10T19:03:56.431Z,32.63
2022-11-10T19:06:43.363Z,30.90
2022-11-10T19:09:26.425Z,30.95
2022-11-10T19:12:13.350Z,29.48
2022-11-10T19:14:54.345Z,28.35
2022-11-10T19:17:50.409Z,27.15
2022-11-10T19:20:37.321Z,25.10
2022-11-10T19:23:10.414Z,26.63
2022-11-10T19:26:06.334Z,27.58
2022-11-10T19:28:39.503Z,32.95
2022-11-10T19:31:29.346Z,49.40
2022-11-10T19:34:04.414Z,47.40
2022-11-10T19:36:54.423Z,42.03
2022-11-10T19:39:27.400Z,42.38
2022-11-10T19:42:17.328Z,37.55
2022-11-10T19:44:50.422Z,45.50
2022-11-10T19:47:37.348Z,48.45
2022-11-10T19:50:10.495Z,47.05
2022-11-10T19:52:57.332Z,47.60
2022-11-10T19:55:30.429Z,50.42
2022-11-10T19:58:17.368Z,48.63
2022-11-10T20:01:02.385Z,44.72
2022-11-10T20:03:56.381Z,44.85
2022-11-10T20:06:43.496Z,44.17
2022-11-10T20:09:16.462Z,42.65
2022-11-10T20:12:03.344Z,44.05
2022-11-10T20:14:36.446Z,43.60
2022-11-10T20:17:38.415Z,43.58
2022-11-10T20:20:25.344Z,38.78
2022-11-10T20:22:58.434Z,37.53
2022-11-10T20:25:46.412Z,37.72
2022-11-10T20:28:26.389Z,40.85
2022-11-10T20:31:19.363Z,38.75
2022-11-10T20:34:03.379Z,37.95
2022-11-10T20:36:57.366Z,38.70
2022-11-10T20:39:44.393Z,36.70
2022-11-10T20:42:24.393Z,41.40
2022-11-10T20:45:18.407Z,39.55
2022-11-10T20:48:05.377Z,40.47
2022-11-10T20:50:38.476Z,45.15
2022-11-10T20:53:25.680Z,45.65
2022-11-10T20:56:15.245Z,42.65
2022-11-10T20:59:09.346Z,45.90
2022-11-10T21:02:03.416Z,45.75
2022-11-10T21:04:57.375Z,45.40
2022-11-10T21:07:51.373Z,72.15
2022-11-10T21:10:38.391Z,50.50
2022-11-10T21:13:11.461Z,48.60
2022-11-10T21:16:15.270Z,46.97
2022-11-10T21:19:10.381Z,45.90
2022-11-10T21:21:58.384Z,42.28
2022-11-10T21:24:31.508Z,42.13
2022-11-10T21:27:19.390Z,43.80
2022-11-10T21:29:59.382Z,43.65
2022-11-10T21:32:46.388Z,43.00
2022-11-10T21:35:19.474Z,44.42
2022-11-10T21:38:06.386Z,46.40
2022-11-10T21:40:47.402Z,48.63
2022-11-10T21:43:34.379Z,45.67
2022-11-10T21:46:14.575Z,44.30
2022-11-10T21:49:07.134Z,38.17
2022-11-10T21:51:40.468Z,41.30
2022-11-10T21:54:27.388Z,39.28
2022-11-10T21:57:07.375Z,37.83
2022-11-10T22:00:01.398Z,38.88
2022-11-10T22:02:48.395Z,40.85
2022-11-10T22:05:21.480Z,42.63
2022-11-10T22:08:08.402Z,44.80
2022-11-10T22:10:59.936Z,43.63
2022-11-10T22:14:04.397Z,44.40
2022-11-10T22:17:11.099Z,43.83
2022-11-10T22:19:57.412Z,42.53
2022-11-10T22:22:30.460Z,42.67
2022-11-10T22:25:17.413Z,42.88
2022-11-10T22:27:50.462Z,44.05
2022-11-10T22:30:37.394Z,44.47
2022-11-10T22:33:28.702Z,42.45
2022-11-10T22:36:21.394Z,42.85
2022-11-10T22:39:03.570Z,41.15
2022-11-10T22:42:17.407Z,42.08
2022-11-10T22:45:04.405Z,39.55
2022-11-10T22:47:56.214Z,39.50
2022-11-10T22:50:43.416Z,36.22
2022-11-10T22:53:16.503Z,36.67
2022-11-10T22:56:06.398Z,34.78
2022-11-10T22:58:39.493Z,35.53
2022-11-10T23:01:26.481Z,36.72
2022-11-10T23:03:59.496Z,35.42
2022-11-10T23:06:46.454Z,37.30
2022-11-10T23:09:19.485Z,36.40
2022-11-10T23:12:06.421Z,36.90
2022-11-10T23:14:39.485Z,36.78
2022-11-10T23:17:33.430Z,35.45
2022-11-10T23:20:20.413Z,35.97
2022-11-10T23:22:53.514Z,38.28
2022-11-10T23:25:40.448Z,36.22
2022-11-10T23:28:13.498Z,35.83
2022-11-10T23:31:00.424Z,32.83
2022-11-10T23:33:33.922Z,33.35
2022-11-10T23:36:22.446Z,33.38
2022-11-10T23:38:55.526Z,32.35
2022-11-10T23:41:42.422Z,34.03
2022-11-10T23:44:15.522Z,34.17
2022-11-10T23:47:02.446Z,32.53
2022-11-10T23:49:35.517Z,31.42
2022-11-10T23:52:22.428Z,33.78
2022-11-10T23:54:55.521Z,32.00
2022-11-10T23:57:42.445Z,32.38
